Terminal Aerodrome Forecast
Issued by NWS

Home | Current Version | Previous Version | Text Only | Print | Product List | Glossary On
Versions: 1 2 3 4 5 6 7 8 9 10 11 12 13 14 15 16 17 18 19 20 21 22 23 24 25 26 27 28 29
000
FTUS41 KALY 011100
TAFPSF
TAF
KPSF 011132Z 0112/0212 25005KT P6SM VCSH BKN013 OVC025
      TEMPO 0112/0113 2SM -SHSN BR BKN008 OVC015
     FM011700 30005KT P6SM BKN035 BKN200
     FM012200 30003KT P6SM VCSH BKN020 OVC080
     FM020400 VRB03KT 3SM -SN BR BKN015 OVC025
     FM020600 04006KT 1 1/2SM -SN BR BKN006 OVC010
     FM020900 03009KT 1/2SM SN FZFG VV003=

USA.gov is the U.S. government's official web portal to all federal, state and local government web resources and services.